createdAt,value
2017-05-07T00:01:45.575Z,99.90
2017-05-07T00:04:13.985Z,99.90
2017-05-07T00:06:42.397Z,99.90
2017-05-07T00:09:10.457Z,99.90
2017-05-07T00:11:38.092Z,99.90
2017-05-07T00:14:05.746Z,99.90
2017-05-07T00:16:33.729Z,99.90
2017-05-07T00:19:01.381Z,99.90
2017-05-07T00:21:29.801Z,99.90
2017-05-07T00:23:58.420Z,99.90
2017-05-07T00:26:26.832Z,99.90
2017-05-07T00:28:54.479Z,99.90
2017-05-07T00:31:22.413Z,99.90
2017-05-07T00:33:50.054Z,99.90
2017-05-07T00:36:17.706Z,99.90
2017-05-07T00:38:45.705Z,99.90
2017-05-07T00:41:13.400Z,99.90
2017-05-07T00:43:41.044Z,99.90
2017-05-07T00:46:09.766Z,99.90
2017-05-07T00:48:37.449Z,99.90
2017-05-07T00:51:05.870Z,99.90
2017-05-07T00:53:33.925Z,99.90
2017-05-07T00:56:01.564Z,99.90
2017-05-07T00:58:29.975Z,99.90
2017-05-07T01:00:57.917Z,99.90
2017-05-07T01:03:25.572Z,99.90
2017-05-07T01:05:53.229Z,99.90
2017-05-07T01:08:22.060Z,99.90
2017-05-07T01:10:49.708Z,99.90
2017-05-07T01:13:17.352Z,99.90
2017-05-07T01:15:45.300Z,99.90
2017-05-07T01:18:12.938Z,99.90
2017-05-07T01:20:40.597Z,99.90
2017-05-07T01:23:08.566Z,99.90
2017-05-07T01:25:36.225Z,99.90
2017-05-07T01:28:03.874Z,99.90
2017-05-07T01:30:31.900Z,99.90
2017-05-07T01:33:00.320Z,99.90
2017-05-07T01:35:28.753Z,99.90
2017-05-07T01:37:56.790Z,99.90
2017-05-07T01:40:24.439Z,99.90
2017-05-07T01:42:52.100Z,99.90
2017-05-07T01:45:20.061Z,99.90
2017-05-07T01:47:47.717Z,99.90
2017-05-07T01:50:15.377Z,99.90
2017-05-07T01:52:44.085Z,99.90
2017-05-07T01:55:11.739Z,99.90
2017-05-07T01:57:39.400Z,99.90
2017-05-07T02:00:07.460Z,99.90
2017-05-07T02:02:35.105Z,99.90
2017-05-07T02:05:02.841Z,99.90
2017-05-07T02:07:30.818Z,99.90
2017-05-07T02:09:58.468Z,99.90
2017-05-07T02:12:26.125Z,99.90
2017-05-07T02:14:54.874Z,99.90
2017-05-07T02:17:22.535Z,99.90
2017-05-07T02:19:50.178Z,99.90
2017-05-07T02:22:18.925Z,99.90
2017-05-07T02:24:46.577Z,99.90
2017-05-07T02:27:14.996Z,99.90
2017-05-07T02:29:43.712Z,99.90
2017-05-07T02:32:11.355Z,99.90
2017-05-07T02:34:39.784Z,99.90
2017-05-07T02:37:07.786Z,99.90
2017-05-07T02:39:35.433Z,99.90
2017-05-07T02:42:03.081Z,99.90
2017-05-07T02:44:31.055Z,99.90
2017-05-07T02:46:59.470Z,99.90
2017-05-07T02:49:27.125Z,99.90
2017-05-07T02:51:55.202Z,99.90
2017-05-07T02:54:22.844Z,99.90
2017-05-07T02:56:50.491Z,99.90
2017-05-07T02:59:18.450Z,99.90
2017-05-07T03:01:46.106Z,99.90
2017-05-07T03:04:13.757Z,99.90
2017-05-07T03:06:41.809Z,99.90
2017-05-07T03:09:09.453Z,99.90
2017-05-07T03:11:37.880Z,99.90
2017-05-07T03:14:05.854Z,99.90
2017-05-07T03:16:33.514Z,99.90
2017-05-07T03:19:01.176Z,99.90
2017-05-07T03:21:29.212Z,99.90
2017-05-07T03:23:56.867Z,99.90
2017-05-07T03:26:24.508Z,99.90
2017-05-07T03:28:52.469Z,99.90
2017-05-07T03:31:20.121Z,99.90
2017-05-07T03:33:47.773Z,99.90
2017-05-07T03:36:15.798Z,99.90
2017-05-07T03:38:43.455Z,99.90
2017-05-07T03:41:11.112Z,99.90
2017-05-07T03:43:39.179Z,99.90
2017-05-07T03:46:06.829Z,99.90
2017-05-07T03:48:34.486Z,99.90
2017-05-07T03:51:03.198Z,99.90
2017-05-07T03:53:31.614Z,99.90
2017-05-07T03:55:59.769Z,99.90
2017-05-07T03:58:27.809Z,99.90
2017-05-07T04:00:56.221Z,99.90
2017-05-07T04:03:23.870Z,99.90
2017-05-07T04:05:52.682Z,99.90
2017-05-07T04:08:20.340Z,99.90
2017-05-07T04:10:47.996Z,99.90
2017-05-07T04:13:17.462Z,99.90
2017-05-07T04:15:45.144Z,99.90
2017-05-07T04:18:13.554Z,99.90
2017-05-07T04:20:41.508Z,99.90
2017-05-07T04:23:09.167Z,99.90
2017-05-07T04:25:36.837Z,99.90
2017-05-07T04:28:04.884Z,99.90
2017-05-07T04:30:33.160Z,99.90
2017-05-07T04:33:02.313Z,99.90
2017-05-07T04:35:30.266Z,99.90
2017-05-07T04:37:58.677Z,99.90
2017-05-07T04:40:27.100Z,99.90
2017-05-07T04:42:55.054Z,99.90
2017-05-07T04:45:22.706Z,99.90
2017-05-07T04:47:51.112Z,99.90
2017-05-07T04:50:19.839Z,99.90
2017-05-07T04:52:47.497Z,99.90
2017-05-07T04:55:15.162Z,99.90
2017-05-07T04:57:44.121Z,99.90
2017-05-07T05:00:11.782Z,99.90
2017-05-07T05:02:39.438Z,99.90
2017-05-07T05:05:07.470Z,99.90
2017-05-07T05:07:35.131Z,99.90
2017-05-07T05:10:02.794Z,99.90
2017-05-07T05:12:31.522Z,99.90
2017-05-07T05:14:59.181Z,99.90
2017-05-07T05:17:26.830Z,99.90
2017-05-07T05:20:10.762Z,99.90
2017-05-07T05:26:00.719Z,99.90
2017-05-07T05:28:46.054Z,99.90
2017-05-07T05:31:14.781Z,99.90
2017-05-07T05:33:42.445Z,99.90
2017-05-07T05:36:10.867Z,99.90
2017-05-07T05:38:38.810Z,99.90
2017-05-07T05:41:07.229Z,99.90
2017-05-07T05:43:34.868Z,99.90
2017-05-07T05:46:03.602Z,99.90
2017-05-07T05:48:31.264Z,99.90
2017-05-07T05:50:58.918Z,99.90
2017-05-07T05:53:26.884Z,99.90
2017-05-07T05:55:55.314Z,99.90
2017-05-07T05:58:22.974Z,99.90
2017-05-07T06:00:50.926Z,99.90
2017-05-07T06:03:18.579Z,99.90
2017-05-07T06:05:46.235Z,99.90
2017-05-07T06:08:14.206Z,99.90
2017-05-07T06:10:42.621Z,99.90
2017-05-07T06:13:10.287Z,99.90
2017-05-07T06:15:38.446Z,99.90
2017-05-07T06:18:07.433Z,99.90
2017-05-07T06:20:35.107Z,99.90
2017-05-07T06:23:03.863Z,99.90
2017-05-07T06:25:32.292Z,99.90
2017-05-07T06:27:59.942Z,99.90
2017-05-07T06:30:27.897Z,99.90
2017-05-07T06:32:56.302Z,99.90
2017-05-07T06:38:02.509Z,99.90
2017-05-07T06:40:31.073Z,99.90
2017-05-07T06:42:58.952Z,99.90
2017-05-07T06:45:27.080Z,99.90
2017-05-07T06:47:55.836Z,99.90
2017-05-07T06:50:23.494Z,99.70
2017-05-07T06:52:52.345Z,99.10
2017-05-07T06:55:20.050Z,99.00
2017-05-07T06:57:47.699Z,99.10
2017-05-07T07:00:18.007Z,99.80
2017-05-07T07:02:46.460Z,99.90
2017-05-07T07:05:14.116Z,99.90
2017-05-07T07:07:42.166Z,99.40
2017-05-07T07:10:09.816Z,97.80
2017-05-07T07:12:38.363Z,98.10
2017-05-07T07:15:06.329Z,96.80
2017-05-07T07:17:33.988Z,97.90
2017-05-07T07:20:01.641Z,97.70
2017-05-07T07:22:29.787Z,96.50
2017-05-07T07:25:00.404Z,95.60
2017-05-07T07:27:28.073Z,95.40
2017-05-07T07:29:57.040Z,94.10
2017-05-07T07:32:25.448Z,95.30
2017-05-07T07:34:53.098Z,95.20
2017-05-07T07:37:21.061Z,93.50
2017-05-07T07:39:48.960Z,92.10
2017-05-07T07:42:17.413Z,92.00
2017-05-07T07:44:46.973Z,92.40
2017-05-07T07:47:14.640Z,92.40
2017-05-07T07:49:42.305Z,90.80
2017-05-07T07:52:11.082Z,91.10
2017-05-07T07:54:38.745Z,90.90
2017-05-07T07:57:06.396Z,91.30
2017-05-07T07:59:35.168Z,91.50
2017-05-07T08:02:03.610Z,90.60
2017-05-07T08:04:31.259Z,90.60
2017-05-07T08:06:59.236Z,90.10
2017-05-07T08:09:27.654Z,88.50
2017-05-07T08:11:55.308Z,88.50
2017-05-07T08:14:23.312Z,88.30
2017-05-07T08:16:50.983Z,87.30
2017-05-07T08:19:19.488Z,86.30
2017-05-07T08:21:47.509Z,86.30
2017-05-07T08:24:15.165Z,83.50
2017-05-07T08:26:42.824Z,86.10
2017-05-07T08:29:10.868Z,85.40
2017-05-07T08:31:38.529Z,83.40
2017-05-07T08:34:06.183Z,82.50
2017-05-07T08:36:34.210Z,81.60
2017-05-07T08:39:02.640Z,80.60
2017-05-07T08:41:31.048Z,78.50
2017-05-07T08:43:59.756Z,78.00
2017-05-07T08:46:28.182Z,76.50
2017-05-07T08:48:55.838Z,76.50
2017-05-07T08:51:24.565Z,77.10
2017-05-07T08:53:52.215Z,77.00
2017-05-07T08:56:19.871Z,77.80
2017-05-07T08:58:47.839Z,75.80
2017-05-07T09:01:15.489Z,76.10
2017-05-07T09:03:43.976Z,79.00
2017-05-07T09:06:13.444Z,77.00
2017-05-07T09:08:41.949Z,78.80
2017-05-07T09:11:10.406Z,79.00
2017-05-07T09:13:39.146Z,79.00
2017-05-07T09:16:36.525Z,77.90
2017-05-07T09:19:05.276Z,78.10
2017-05-07T09:21:32.930Z,77.50
2017-05-07T09:24:01.336Z,77.20
2017-05-07T09:26:30.188Z,76.70
2017-05-07T09:28:58.605Z,76.40
2017-05-07T09:31:26.269Z,76.40
2017-05-07T09:33:55.746Z,77.70
2017-05-07T09:36:24.163Z,78.60
2017-05-07T09:38:52.587Z,79.40
2017-05-07T09:41:20.633Z,79.40
2017-05-07T09:43:49.070Z,79.70
2017-05-07T09:46:17.502Z,79.30
2017-05-07T09:48:46.339Z,80.10
2017-05-07T09:51:13.992Z,80.00
2017-05-07T09:53:41.644Z,78.20
2017-05-07T09:56:11.183Z,77.00
2017-05-07T09:58:38.829Z,77.00
2017-05-07T10:01:06.476Z,77.10
2017-05-07T10:03:34.465Z,76.30
2017-05-07T10:06:02.130Z,74.00
2017-05-07T10:08:30.550Z,74.50
2017-05-07T10:10:59.354Z,73.60
2017-05-07T10:13:27.009Z,73.60
2017-05-07T10:15:54.661Z,71.50
2017-05-07T10:18:24.122Z,72.60
2017-05-07T10:20:51.776Z,72.60
2017-05-07T10:23:19.447Z,68.90
2017-05-07T10:25:47.481Z,71.20
2017-05-07T10:28:15.133Z,71.40
2017-05-07T10:30:43.541Z,72.00
2017-05-07T10:33:12.402Z,69.20
2017-05-07T10:35:40.062Z,69.10
2017-05-07T10:38:08.492Z,68.10
2017-05-07T10:40:36.646Z,68.10
2017-05-07T10:43:04.297Z,67.30
2017-05-07T10:45:31.948Z,66.10
2017-05-07T10:47:59.991Z,64.70
2017-05-07T10:50:27.650Z,61.70
2017-05-07T10:52:55.328Z,62.50
2017-05-07T10:55:23.880Z,61.40
2017-05-07T10:57:53.037Z,59.80
2017-05-07T11:00:20.700Z,59.70
2017-05-07T11:02:48.724Z,60.20
2017-05-07T11:05:16.383Z,59.60
2017-05-07T11:07:45.529Z,60.40
2017-05-07T11:10:13.461Z,60.40
2017-05-07T11:12:41.874Z,59.10
2017-05-07T11:15:09.538Z,59.10
2017-05-07T11:17:39.185Z,60.10
2017-05-07T11:20:06.907Z,58.80
2017-05-07T11:22:35.330Z,57.30
2017-05-07T11:25:03.285Z,57.20
2017-05-07T11:27:30.947Z,57.20
2017-05-07T11:29:58.629Z,56.90
2017-05-07T11:32:27.350Z,54.90
2017-05-07T11:34:55.004Z,54.30
2017-05-07T11:37:23.431Z,53.60
2017-05-07T11:39:51.664Z,53.60
2017-05-07T11:42:20.381Z,50.80
2017-05-07T11:44:48.052Z,50.80
2017-05-07T11:47:16.013Z,52.50
2017-05-07T11:49:43.676Z,53.60
2017-05-07T11:52:11.322Z,50.80
2017-05-07T11:54:40.041Z,55.50
2017-05-07T11:57:07.713Z,55.50
2017-05-07T11:59:35.365Z,55.80
2017-05-07T12:02:04.121Z,55.50
2017-05-07T12:04:32.563Z,55.00
2017-05-07T12:07:00.223Z,54.90
2017-05-07T12:09:28.192Z,54.80
2017-05-07T12:11:55.844Z,54.40
2017-05-07T12:14:24.268Z,50.50
2017-05-07T12:16:52.231Z,50.40
2017-05-07T12:19:19.878Z,51.00
2017-05-07T12:21:47.528Z,51.00
2017-05-07T12:24:15.509Z,50.90
2017-05-07T12:26:43.916Z,49.30
2017-05-07T12:29:12.345Z,46.30
2017-05-07T12:31:40.393Z,46.20
2017-05-07T12:34:08.052Z,47.50
2017-05-07T12:36:35.694Z,48.30
2017-05-07T12:39:04.463Z,50.00
2017-05-07T12:41:32.124Z,50.00
2017-05-07T12:43:59.781Z,49.50
2017-05-07T12:46:27.817Z,51.80
2017-05-07T12:48:55.464Z,50.80
2017-05-07T12:51:23.123Z,50.40
2017-05-07T12:53:52.578Z,48.40
2017-05-07T12:56:20.221Z,48.40
2017-05-07T12:58:47.866Z,49.40
2017-05-07T13:01:16.587Z,50.10
2017-05-07T13:03:44.269Z,49.90
2017-05-07T13:06:12.770Z,47.10
2017-05-07T13:08:40.830Z,47.00
2017-05-07T13:11:08.485Z,46.40
2017-05-07T13:13:36.137Z,47.40
2017-05-07T13:16:04.875Z,45.20
2017-05-07T13:18:33.285Z,46.00
2017-05-07T13:21:00.930Z,45.90
2017-05-07T13:23:28.944Z,44.10
2017-05-07T13:25:56.577Z,43.40
2017-05-07T13:28:24.217Z,44.10
2017-05-07T13:30:52.202Z,44.80
2017-05-07T13:33:20.617Z,42.20
2017-05-07T13:35:49.024Z,43.90
2017-05-07T13:38:17.809Z,43.90
2017-05-07T13:40:45.587Z,44.50
2017-05-07T13:43:13.229Z,43.80
2017-05-07T13:45:41.246Z,45.40
2017-05-07T13:48:10.489Z,42.00
2017-05-07T13:50:38.925Z,43.30
2017-05-07T13:53:07.640Z,43.20
2017-05-07T13:55:35.280Z,43.20
2017-05-07T13:58:03.005Z,44.50
2017-05-07T14:00:31.016Z,46.00
2017-05-07T14:02:58.855Z,45.70
2017-05-07T14:05:28.044Z,46.40
2017-05-07T14:07:56.748Z,45.70
2017-05-07T14:10:25.140Z,47.00
2017-05-07T14:12:53.541Z,46.60
2017-05-07T14:15:21.508Z,46.50
2017-05-07T14:17:49.909Z,46.20
2017-05-07T14:20:18.313Z,47.00
2017-05-07T14:22:47.146Z,46.00
2017-05-07T14:25:14.802Z,46.00
2017-05-07T14:27:43.212Z,46.70
2017-05-07T14:30:11.189Z,46.60
2017-05-07T14:32:38.825Z,45.10
2017-05-07T14:35:06.506Z,44.50
2017-05-07T14:37:35.236Z,46.20
2017-05-07T14:40:03.640Z,45.60
2017-05-07T14:42:32.798Z,46.70
2017-05-07T14:45:00.800Z,46.70
2017-05-07T14:47:29.209Z,42.20
2017-05-07T14:49:57.620Z,42.00
2017-05-07T14:52:26.353Z,41.40
2017-05-07T14:54:53.989Z,41.20
2017-05-07T14:57:21.624Z,42.10
2017-05-07T14:59:49.545Z,40.00
2017-05-07T15:02:17.949Z,39.60
2017-05-07T15:04:46.348Z,40.50
2017-05-07T15:07:14.380Z,40.50
2017-05-07T15:09:42.016Z,39.80
2017-05-07T15:12:10.427Z,39.80
2017-05-07T15:14:39.152Z,39.30
2017-05-07T15:17:07.553Z,40.70
2017-05-07T15:19:35.212Z,40.80
2017-05-07T15:22:03.945Z,38.80
2017-05-07T15:24:32.351Z,38.70
2017-05-07T15:27:00.803Z,39.70
2017-05-07T15:29:29.441Z,39.70
2017-05-07T15:31:57.075Z,39.50
2017-05-07T15:34:24.722Z,39.10
2017-05-07T15:36:52.680Z,40.20
2017-05-07T15:39:20.320Z,40.60
2017-05-07T15:41:48.720Z,39.10
2017-05-07T15:44:17.412Z,39.30
2017-05-07T15:46:46.221Z,39.20
2017-05-07T15:49:14.624Z,39.50
2017-05-07T15:51:42.673Z,39.50
2017-05-07T15:54:10.302Z,41.20
2017-05-07T15:56:38.708Z,43.00
2017-05-07T15:59:06.716Z,43.00
2017-05-07T16:01:34.374Z,42.40
2017-05-07T16:04:02.810Z,42.40
2017-05-07T16:06:30.769Z,42.40
2017-05-07T16:08:58.404Z,44.00
2017-05-07T16:11:26.076Z,43.70
2017-05-07T16:13:54.881Z,43.10
2017-05-07T16:16:26.170Z,43.00
2017-05-07T16:22:17.009Z,43.00
2017-05-07T16:25:00.506Z,42.90
2017-05-07T16:27:43.846Z,44.00
2017-05-07T16:30:27.389Z,44.10
2017-05-07T16:32:55.734Z,44.20
2017-05-07T16:35:24.157Z,43.10
2017-05-07T16:37:52.162Z,43.00
2017-05-07T16:40:20.572Z,42.90
2017-05-07T16:42:48.234Z,42.90
2017-05-07T16:45:17.950Z,43.80
2017-05-07T16:47:45.624Z,42.50
2017-05-07T16:50:14.021Z,41.90
2017-05-07T16:52:41.945Z,41.90
2017-05-07T16:55:09.576Z,42.70
2017-05-07T16:57:37.981Z,44.10
2017-05-07T17:00:05.981Z,44.10
2017-05-07T17:02:39.245Z,43.30
2017-05-07T17:05:07.200Z,44.70
2017-05-07T17:07:34.853Z,45.10
2017-05-07T17:10:02.504Z,44.70
2017-05-07T17:12:30.445Z,45.00
2017-05-07T17:14:59.596Z,47.70
2017-05-07T17:17:27.271Z,47.70
2017-05-07T17:19:56.001Z,47.90
2017-05-07T17:22:23.891Z,47.20
2017-05-07T17:24:51.548Z,48.00
2017-05-07T17:27:21.035Z,49.40
2017-05-07T17:29:50.181Z,50.00
2017-05-07T17:32:17.839Z,50.00
2017-05-07T17:34:45.936Z,48.80
2017-05-07T17:37:13.577Z,50.10
2017-05-07T17:39:42.749Z,52.50
2017-05-07T17:42:12.192Z,52.20
2017-05-07T17:44:40.837Z,52.10
2017-05-07T17:47:09.246Z,52.70
2017-05-07T17:49:38.026Z,53.20
2017-05-07T17:52:05.677Z,53.20
2017-05-07T17:54:33.325Z,55.40
2017-05-07T17:57:01.268Z,56.20
2017-05-07T17:59:29.667Z,57.10
2017-05-07T18:01:57.312Z,57.00
2017-05-07T18:04:25.259Z,58.10
2017-05-07T18:06:52.913Z,59.10
2017-05-07T18:09:20.568Z,59.20
2017-05-07T18:11:49.259Z,63.30
2017-05-07T18:14:16.902Z,63.20
2017-05-07T18:16:45.380Z,65.50
2017-05-07T18:19:13.380Z,65.40
2017-05-07T18:21:41.025Z,65.90
2017-05-07T18:24:10.185Z,67.30
2017-05-07T18:26:38.161Z,67.30
2017-05-07T18:29:07.315Z,71.10
2017-05-07T18:31:34.953Z,71.60
2017-05-07T18:34:02.919Z,71.50
2017-05-07T18:36:31.326Z,74.50
2017-05-07T18:38:58.967Z,74.50
2017-05-07T18:41:27.008Z,76.40
2017-05-07T18:43:54.662Z,76.00
2017-05-07T18:46:22.300Z,76.90
2017-05-07T18:48:50.346Z,77.80
2017-05-07T18:51:17.985Z,78.50
2017-05-07T18:53:45.640Z,78.90
2017-05-07T18:56:14.335Z,80.80
2017-05-07T18:58:41.984Z,80.90
2017-05-07T19:01:10.419Z,81.80
2017-05-07T19:03:39.133Z,81.80
2017-05-07T19:06:06.772Z,81.80
2017-05-07T19:08:35.211Z,83.40
2017-05-07T19:11:03.178Z,83.20
2017-05-07T19:13:30.824Z,83.70
2017-05-07T19:15:58.811Z,84.80
2017-05-07T19:18:27.530Z,85.40
2017-05-07T19:20:55.940Z,86.10
2017-05-07T19:23:24.390Z,86.70
2017-05-07T19:25:53.117Z,86.60
2017-05-07T19:28:20.874Z,86.60
2017-05-07T19:30:48.525Z,87.30
2017-05-07T19:33:16.755Z,87.40
2017-05-07T19:35:44.413Z,88.30
2017-05-07T19:38:12.819Z,88.90
2017-05-07T19:40:41.049Z,88.70
2017-05-07T19:43:09.126Z,90.10
2017-05-07T19:45:36.766Z,90.80
2017-05-07T19:48:04.709Z,90.70
2017-05-07T19:50:32.459Z,91.80
2017-05-07T19:53:00.203Z,92.40
2017-05-07T19:55:28.269Z,92.20
2017-05-07T19:57:56.039Z,92.60
2017-05-07T20:00:23.795Z,92.90
2017-05-07T20:02:51.924Z,93.10
2017-05-07T20:05:20.431Z,93.40
2017-05-07T20:07:48.947Z,94.30
2017-05-07T20:10:17.823Z,93.30
2017-05-07T20:12:45.989Z,93.20
2017-05-07T20:15:14.402Z,93.60
2017-05-07T20:17:42.363Z,93.50
2017-05-07T20:20:10.777Z,94.50
2017-05-07T20:22:38.522Z,94.50
2017-05-07T20:25:06.481Z,94.30
2017-05-07T20:27:34.133Z,94.50
2017-05-07T20:30:01.781Z,94.70
2017-05-07T20:32:30.540Z,94.90
2017-05-07T20:34:58.214Z,94.90
2017-05-07T20:37:25.863Z,95.30
2017-05-07T20:39:53.792Z,96.10
2017-05-07T20:42:22.676Z,96.00
2017-05-07T20:44:50.387Z,96.00
2017-05-07T20:47:18.468Z,95.80
2017-05-07T20:49:46.876Z,96.10
2017-05-07T20:52:15.355Z,96.40
2017-05-07T20:54:44.069Z,97.00
2017-05-07T20:57:11.705Z,97.00
2017-05-07T20:59:39.339Z,97.00
2017-05-07T21:02:07.318Z,97.30
2017-05-07T21:04:34.950Z,97.00
2017-05-07T21:07:03.428Z,97.00
2017-05-07T21:09:31.381Z,97.00
2017-05-07T21:11:59.028Z,97.60
2017-05-07T21:14:26.674Z,97.80
2017-05-07T21:16:54.731Z,97.60
2017-05-07T21:19:22.359Z,97.20
2017-05-07T21:21:49.993Z,97.30
2017-05-07T21:24:17.974Z,97.10
2017-05-07T21:26:45.659Z,96.30
2017-05-07T21:29:14.066Z,95.70
2017-05-07T21:31:42.021Z,95.80
2017-05-07T21:34:10.431Z,96.10
2017-05-07T21:36:39.587Z,96.80
2017-05-07T21:39:07.537Z,96.70
2017-05-07T21:41:35.171Z,97.20
2017-05-07T21:44:03.578Z,97.50
2017-05-07T21:46:32.323Z,97.50
2017-05-07T21:49:01.724Z,97.70
2017-05-07T21:51:29.364Z,97.60
2017-05-07T21:53:57.304Z,98.00
2017-05-07T21:56:24.940Z,97.80
2017-05-07T21:58:52.576Z,98.20
2017-05-07T22:01:20.531Z,98.60
2017-05-07T22:03:48.172Z,99.00
2017-05-07T22:06:15.812Z,99.00
2017-05-07T22:08:44.556Z,99.60
2017-05-07T22:11:12.199Z,99.60
2017-05-07T22:13:39.842Z,99.60
2017-05-07T22:16:08.587Z,99.60
2017-05-07T22:18:36.990Z,99.80
2017-05-07T22:21:05.405Z,99.70
2017-05-07T22:23:33.376Z,99.70
2017-05-07T22:26:01.009Z,99.60
2017-05-07T22:28:28.637Z,99.80
2017-05-07T22:30:56.608Z,99.90
2017-05-07T22:33:24.258Z,99.90
2017-05-07T22:35:51.897Z,99.90
2017-05-07T22:38:19.834Z,99.90
2017-05-07T22:40:47.492Z,99.90
2017-05-07T22:43:15.183Z,99.90
2017-05-07T22:45:43.893Z,99.90
2017-05-07T22:48:11.529Z,99.90
2017-05-07T22:50:39.928Z,99.90
2017-05-07T22:53:07.901Z,99.90
2017-05-07T22:55:37.895Z,99.90
2017-05-07T22:58:06.296Z,99.90
2017-05-07T23:00:35.067Z,99.90
2017-05-07T23:03:02.715Z,99.90
2017-05-07T23:05:30.359Z,99.90
2017-05-07T23:07:58.376Z,99.90
2017-05-07T23:10:26.011Z,99.90
2017-05-07T23:12:53.650Z,99.90
2017-05-07T23:15:22.337Z,99.90
2017-05-07T23:17:50.735Z,99.90
2017-05-07T23:20:18.382Z,99.90
2017-05-07T23:22:46.449Z,99.80
2017-05-07T23:25:14.085Z,99.90
2017-05-07T23:27:41.725Z,99.90
2017-05-07T23:30:11.192Z,99.90
2017-05-07T23:32:38.834Z,99.90
2017-05-07T23:35:06.474Z,99.90
2017-05-07T23:37:35.261Z,99.60
2017-05-07T23:40:03.674Z,99.80
2017-05-07T23:42:32.094Z,99.70
2017-05-07T23:45:00.130Z,99.60
2017-05-07T23:47:27.768Z,99.10
2017-05-07T23:49:55.422Z,99.00
2017-05-07T23:52:23.370Z,99.90
2017-05-07T23:54:51.009Z,99.40
2017-05-07T23:57:18.645Z,99.50
2017-05-07T23:59:47.349Z,99.70
